sensor_id;sensor_type;location;lat;lon;timestamp;P1;durP1;ratioP1;P2;durP2;ratioP2
23658;SDS011;12006;42.666;23.326;2022-08-14T00:02:13;11.18;;;8.48;;
23658;SDS011;12006;42.666;23.326;2022-08-14T00:04:38;11.13;;;8.23;;
23658;SDS011;12006;42.666;23.326;2022-08-14T00:07:04;13.13;;;9.05;;
23658;SDS011;12006;42.666;23.326;2022-08-14T00:09:29;10.85;;;8.85;;
23658;SDS011;12006;42.666;23.326;2022-08-14T00:11:54;13.32;;;8.32;;
23658;SDS011;12006;42.666;23.326;2022-08-14T00:14:20;9.85;;;7.55;;
23658;SDS011;12006;42.666;23.326;2022-08-14T00:16:45;12.50;;;7.70;;
23658;SDS011;12006;42.666;23.326;2022-08-14T00:19:12;13.32;;;8.80;;
23658;SDS011;12006;42.666;23.326;2022-08-14T00:21:37;10.02;;;7.80;;
23658;SDS011;12006;42.666;23.326;2022-08-14T00:24:03;12.20;;;8.93;;
23658;SDS011;12006;42.666;23.326;2022-08-14T00:26:28;11.48;;;8.40;;
23658;SDS011;12006;42.666;23.326;2022-08-14T00:28:54;11.68;;;8.20;;
23658;SDS011;12006;42.666;23.326;2022-08-14T00:31:20;10.77;;;8.48;;
23658;SDS011;12006;42.666;23.326;2022-08-14T00:33:45;12.90;;;7.88;;
23658;SDS011;12006;42.666;23.326;2022-08-14T00:36:10;11.60;;;8.20;;
23658;SDS011;12006;42.666;23.326;2022-08-14T00:38:36;13.73;;;9.52;;
23658;SDS011;12006;42.666;23.326;2022-08-14T00:41:05;12.73;;;8.27;;
23658;SDS011;12006;42.666;23.326;2022-08-14T00:43:31;12.18;;;7.82;;
23658;SDS011;12006;42.666;23.326;2022-08-14T00:45:56;13.30;;;8.80;;
23658;SDS011;12006;42.666;23.326;2022-08-14T00:48:22;11.73;;;9.05;;
23658;SDS011;12006;42.666;23.326;2022-08-14T00:50:47;14.50;;;9.07;;
23658;SDS011;12006;42.666;23.326;2022-08-14T00:53:12;13.18;;;8.65;;
23658;SDS011;12006;42.666;23.326;2022-08-14T00:55:40;12.32;;;8.88;;
23658;SDS011;12006;42.666;23.326;2022-08-14T00:58:07;12.98;;;9.45;;
23658;SDS011;12006;42.666;23.326;2022-08-14T01:00:51;12.27;;;7.85;;
23658;SDS011;12006;42.666;23.326;2022-08-14T01:03:19;10.73;;;7.97;;
23658;SDS011;12006;42.666;23.326;2022-08-14T01:05:45;14.45;;;9.80;;
23658;SDS011;12006;42.666;23.326;2022-08-14T01:08:15;13.85;;;9.65;;
23658;SDS011;12006;42.666;23.326;2022-08-14T01:10:41;14.73;;;10.00;;
23658;SDS011;12006;42.666;23.326;2022-08-14T01:13:27;15.80;;;10.02;;
23658;SDS011;12006;42.666;23.326;2022-08-14T01:15:54;14.50;;;9.73;;
23658;SDS011;12006;42.666;23.326;2022-08-14T01:18:20;14.98;;;8.77;;
23658;SDS011;12006;42.666;23.326;2022-08-14T01:21:05;14.77;;;9.82;;
23658;SDS011;12006;42.666;23.326;2022-08-14T01:23:35;11.52;;;8.40;;
23658;SDS011;12006;42.666;23.326;2022-08-14T01:26:01;15.32;;;9.25;;
23658;SDS011;12006;42.666;23.326;2022-08-14T01:28:27;12.77;;;8.45;;
23658;SDS011;12006;42.666;23.326;2022-08-14T01:30:55;14.00;;;9.98;;
23658;SDS011;12006;42.666;23.326;2022-08-14T01:33:25;10.50;;;8.23;;
23658;SDS011;12006;42.666;23.326;2022-08-14T01:35:57;14.68;;;9.18;;
23658;SDS011;12006;42.666;23.326;2022-08-14T01:38:24;10.68;;;8.25;;
23658;SDS011;12006;42.666;23.326;2022-08-14T01:40:50;13.15;;;7.78;;
23658;SDS011;12006;42.666;23.326;2022-08-14T01:43:16;10.00;;;7.82;;
23658;SDS011;12006;42.666;23.326;2022-08-14T01:45:45;10.95;;;7.50;;
23658;SDS011;12006;42.666;23.326;2022-08-14T01:48:15;11.10;;;7.82;;
23658;SDS011;12006;42.666;23.326;2022-08-14T01:50:41;12.45;;;8.02;;
23658;SDS011;12006;42.666;23.326;2022-08-14T01:53:06;11.68;;;8.50;;
23658;SDS011;12006;42.666;23.326;2022-08-14T01:55:32;11.13;;;7.72;;
23658;SDS011;12006;42.666;23.326;2022-08-14T01:57:59;11.52;;;8.48;;
23658;SDS011;12006;42.666;23.326;2022-08-14T02:00:24;10.93;;;6.80;;
23658;SDS011;12006;42.666;23.326;2022-08-14T02:02:50;12.70;;;7.45;;
23658;SDS011;12006;42.666;23.326;2022-08-14T02:05:15;9.85;;;7.00;;
23658;SDS011;12006;42.666;23.326;2022-08-14T02:07:41;9.73;;;6.60;;
23658;SDS011;12006;42.666;23.326;2022-08-14T02:10:09;11.60;;;6.85;;
23658;SDS011;12006;42.666;23.326;2022-08-14T02:12:35;10.65;;;7.15;;
23658;SDS011;12006;42.666;23.326;2022-08-14T02:15:00;10.85;;;8.35;;
23658;SDS011;12006;42.666;23.326;2022-08-14T02:17:26;11.30;;;7.10;;
23658;SDS011;12006;42.666;23.326;2022-08-14T02:19:52;12.93;;;7.80;;
23658;SDS011;12006;42.666;23.326;2022-08-14T02:22:18;13.68;;;8.48;;
23658;SDS011;12006;42.666;23.326;2022-08-14T02:24:43;9.43;;;7.40;;
23658;SDS011;12006;42.666;23.326;2022-08-14T02:27:09;10.38;;;7.85;;
23658;SDS011;12006;42.666;23.326;2022-08-14T02:29:37;9.90;;;7.55;;
23658;SDS011;12006;42.666;23.326;2022-08-14T02:32:02;12.00;;;7.63;;
23658;SDS011;12006;42.666;23.326;2022-08-14T02:36:54;11.52;;;7.55;;
23658;SDS011;12006;42.666;23.326;2022-08-14T02:39:23;9.48;;;7.25;;
23658;SDS011;12006;42.666;23.326;2022-08-14T02:41:48;9.73;;;7.80;;
23658;SDS011;12006;42.666;23.326;2022-08-14T02:44:16;12.77;;;8.35;;
23658;SDS011;12006;42.666;23.326;2022-08-14T02:46:45;10.63;;;7.55;;
23658;SDS011;12006;42.666;23.326;2022-08-14T02:49:11;9.68;;;7.60;;
23658;SDS011;12006;42.666;23.326;2022-08-14T02:51:37;10.43;;;8.57;;
23658;SDS011;12006;42.666;23.326;2022-08-14T02:54:03;11.48;;;8.18;;
23658;SDS011;12006;42.666;23.326;2022-08-14T02:56:28;12.00;;;8.52;;
23658;SDS011;12006;42.666;23.326;2022-08-14T02:58:55;12.30;;;9.30;;
23658;SDS011;12006;42.666;23.326;2022-08-14T03:01:20;13.02;;;8.95;;
23658;SDS011;12006;42.666;23.326;2022-08-14T03:03:47;18.52;;;11.00;;
23658;SDS011;12006;42.666;23.326;2022-08-14T03:06:14;16.02;;;10.27;;
23658;SDS011;12006;42.666;23.326;2022-08-14T03:08:40;15.90;;;8.98;;
23658;SDS011;12006;42.666;23.326;2022-08-14T03:11:07;11.73;;;8.65;;
23658;SDS011;12006;42.666;23.326;2022-08-14T03:13:34;12.15;;;8.52;;
23658;SDS011;12006;42.666;23.326;2022-08-14T03:16:00;11.25;;;7.72;;
23658;SDS011;12006;42.666;23.326;2022-08-14T03:18:26;20.55;;;10.25;;
23658;SDS011;12006;42.666;23.326;2022-08-14T03:20:51;13.68;;;9.52;;
23658;SDS011;12006;42.666;23.326;2022-08-14T03:23:17;13.35;;;8.45;;
23658;SDS011;12006;42.666;23.326;2022-08-14T03:25:43;18.98;;;10.15;;
23658;SDS011;12006;42.666;23.326;2022-08-14T03:28:08;15.30;;;9.93;;
23658;SDS011;12006;42.666;23.326;2022-08-14T03:30:34;14.32;;;10.05;;
23658;SDS011;12006;42.666;23.326;2022-08-14T03:32:59;16.63;;;10.65;;
23658;SDS011;12006;42.666;23.326;2022-08-14T03:35:25;15.73;;;9.90;;
23658;SDS011;12006;42.666;23.326;2022-08-14T03:37:50;15.80;;;9.07;;
23658;SDS011;12006;42.666;23.326;2022-08-14T03:40:20;18.73;;;11.35;;
23658;SDS011;12006;42.666;23.326;2022-08-14T03:42:46;15.68;;;9.95;;
23658;SDS011;12006;42.666;23.326;2022-08-14T03:45:12;17.20;;;9.93;;
23658;SDS011;12006;42.666;23.326;2022-08-14T03:47:38;19.05;;;11.77;;
23658;SDS011;12006;42.666;23.326;2022-08-14T03:50:07;18.88;;;11.13;;
23658;SDS011;12006;42.666;23.326;2022-08-14T03:52:33;17.48;;;10.45;;
23658;SDS011;12006;42.666;23.326;2022-08-14T03:54:59;19.20;;;11.52;;
23658;SDS011;12006;42.666;23.326;2022-08-14T03:57:25;18.13;;;10.38;;
23658;SDS011;12006;42.666;23.326;2022-08-14T03:59:56;15.73;;;10.35;;
23658;SDS011;12006;42.666;23.326;2022-08-14T04:02:21;19.63;;;11.48;;
23658;SDS011;12006;42.666;23.326;2022-08-14T04:04:48;16.52;;;9.85;;
23658;SDS011;12006;42.666;23.326;2022-08-14T04:07:14;14.65;;;10.25;;
23658;SDS011;12006;42.666;23.326;2022-08-14T04:09:39;17.15;;;11.52;;
23658;SDS011;12006;42.666;23.326;2022-08-14T04:12:04;16.00;;;11.90;;
23658;SDS011;12006;42.666;23.326;2022-08-14T04:14:30;14.52;;;10.30;;
23658;SDS011;12006;42.666;23.326;2022-08-14T04:16:55;17.50;;;11.25;;
23658;SDS011;12006;42.666;23.326;2022-08-14T04:19:20;17.95;;;12.40;;
23658;SDS011;12006;42.666;23.326;2022-08-14T04:21:47;17.52;;;11.75;;
23658;SDS011;12006;42.666;23.326;2022-08-14T04:24:15;16.08;;;11.30;;
23658;SDS011;12006;42.666;23.326;2022-08-14T04:26:41;17.27;;;11.65;;
23658;SDS011;12006;42.666;23.326;2022-08-14T04:29:08;16.08;;;11.07;;
23658;SDS011;12006;42.666;23.326;2022-08-14T04:31:33;15.82;;;11.00;;
23658;SDS011;12006;42.666;23.326;2022-08-14T04:33:59;15.10;;;10.35;;
23658;SDS011;12006;42.666;23.326;2022-08-14T04:36:25;12.70;;;9.95;;
23658;SDS011;12006;42.666;23.326;2022-08-14T04:38:50;17.33;;;11.18;;
23658;SDS011;12006;42.666;23.326;2022-08-14T04:41:36;16.15;;;10.75;;
23658;SDS011;12006;42.666;23.326;2022-08-14T04:44:20;16.50;;;10.98;;
23658;SDS011;12006;42.666;23.326;2022-08-14T04:46:45;15.98;;;9.77;;
23658;SDS011;12006;42.666;23.326;2022-08-14T04:49:31;16.52;;;10.73;;
23658;SDS011;12006;42.666;23.326;2022-08-14T04:51:56;14.20;;;10.57;;
23658;SDS011;12006;42.666;23.326;2022-08-14T04:54:22;16.48;;;10.60;;
23658;SDS011;12006;42.666;23.326;2022-08-14T04:56:50;12.32;;;10.48;;
23658;SDS011;12006;42.666;23.326;2022-08-14T04:59:15;15.35;;;10.73;;
23658;SDS011;12006;42.666;23.326;2022-08-14T05:01:41;16.40;;;11.00;;
23658;SDS011;12006;42.666;23.326;2022-08-14T05:04:08;15.88;;;10.55;;
23658;SDS011;12006;42.666;23.326;2022-08-14T05:06:34;15.13;;;10.82;;
23658;SDS011;12006;42.666;23.326;2022-08-14T05:08:59;14.65;;;10.45;;
23658;SDS011;12006;42.666;23.326;2022-08-14T05:11:24;16.25;;;10.35;;
23658;SDS011;12006;42.666;23.326;2022-08-14T05:13:49;16.02;;;10.60;;
23658;SDS011;12006;42.666;23.326;2022-08-14T05:16:15;14.25;;;9.77;;
23658;SDS011;12006;42.666;23.326;2022-08-14T05:18:40;15.52;;;9.75;;
23658;SDS011;12006;42.666;23.326;2022-08-14T05:21:06;13.13;;;9.70;;
23658;SDS011;12006;42.666;23.326;2022-08-14T05:23:33;13.45;;;9.90;;
23658;SDS011;12006;42.666;23.326;2022-08-14T05:25:59;14.93;;;10.77;;
23658;SDS011;12006;42.666;23.326;2022-08-14T05:28:31;12.43;;;9.13;;
23658;SDS011;12006;42.666;23.326;2022-08-14T05:30:58;14.52;;;10.30;;
23658;SDS011;12006;42.666;23.326;2022-08-14T05:33:24;13.18;;;9.73;;
23658;SDS011;12006;42.666;23.326;2022-08-14T05:35:50;12.75;;;9.95;;
23658;SDS011;12006;42.666;23.326;2022-08-14T05:38:16;13.73;;;9.73;;
23658;SDS011;12006;42.666;23.326;2022-08-14T05:40:43;12.48;;;9.63;;
23658;SDS011;12006;42.666;23.326;2022-08-14T05:43:08;13.15;;;10.20;;
23658;SDS011;12006;42.666;23.326;2022-08-14T05:45:34;11.38;;;8.77;;
23658;SDS011;12006;42.666;23.326;2022-08-14T05:48:03;11.48;;;8.65;;
23658;SDS011;12006;42.666;23.326;2022-08-14T05:50:29;11.25;;;8.95;;
23658;SDS011;12006;42.666;23.326;2022-08-14T05:52:55;10.30;;;7.75;;
23658;SDS011;12006;42.666;23.326;2022-08-14T05:55:21;10.32;;;7.88;;
23658;SDS011;12006;42.666;23.326;2022-08-14T05:57:48;10.05;;;7.32;;
23658;SDS011;12006;42.666;23.326;2022-08-14T06:00:14;9.90;;;7.68;;
23658;SDS011;12006;42.666;23.326;2022-08-14T06:02:40;9.95;;;8.05;;
23658;SDS011;12006;42.666;23.326;2022-08-14T06:05:05;8.80;;;7.93;;
23658;SDS011;12006;42.666;23.326;2022-08-14T06:07:34;11.02;;;8.60;;
23658;SDS011;12006;42.666;23.326;2022-08-14T06:09:59;10.70;;;8.23;;
23658;SDS011;12006;42.666;23.326;2022-08-14T06:12:24;9.65;;;8.05;;
23658;SDS011;12006;42.666;23.326;2022-08-14T06:14:49;10.35;;;8.65;;
23658;SDS011;12006;42.666;23.326;2022-08-14T06:17:14;9.75;;;7.68;;
23658;SDS011;12006;42.666;23.326;2022-08-14T06:19:40;11.05;;;7.85;;
23658;SDS011;12006;42.666;23.326;2022-08-14T06:22:05;8.35;;;7.45;;
23658;SDS011;12006;42.666;23.326;2022-08-14T06:24:30;7.75;;;6.95;;
23658;SDS011;12006;42.666;23.326;2022-08-14T06:26:56;9.65;;;7.63;;
23658;SDS011;12006;42.666;23.326;2022-08-14T06:29:21;7.13;;;6.40;;
23658;SDS011;12006;42.666;23.326;2022-08-14T06:31:46;9.13;;;7.53;;
23658;SDS011;12006;42.666;23.326;2022-08-14T06:34:11;8.10;;;7.07;;
23658;SDS011;12006;42.666;23.326;2022-08-14T06:36:37;8.02;;;7.22;;
23658;SDS011;12006;42.666;23.326;2022-08-14T06:39:02;7.72;;;6.60;;
23658;SDS011;12006;42.666;23.326;2022-08-14T06:41:28;7.97;;;6.32;;
23658;SDS011;12006;42.666;23.326;2022-08-14T06:43:53;7.15;;;6.50;;
23658;SDS011;12006;42.666;23.326;2022-08-14T06:46:18;8.00;;;6.43;;
23658;SDS011;12006;42.666;23.326;2022-08-14T06:48:43;7.03;;;6.32;;
23658;SDS011;12006;42.666;23.326;2022-08-14T06:51:09;7.32;;;5.53;;
23658;SDS011;12006;42.666;23.326;2022-08-14T06:53:34;6.20;;;5.45;;
23658;SDS011;12006;42.666;23.326;2022-08-14T06:55:59;5.80;;;5.10;;
23658;SDS011;12006;42.666;23.326;2022-08-14T06:58:25;5.57;;;5.05;;
23658;SDS011;12006;42.666;23.326;2022-08-14T07:00:50;6.25;;;5.65;;
23658;SDS011;12006;42.666;23.326;2022-08-14T07:03:34;6.32;;;5.68;;
23658;SDS011;12006;42.666;23.326;2022-08-14T07:06:18;4.93;;;4.43;;
23658;SDS011;12006;42.666;23.326;2022-08-14T07:08:44;5.10;;;4.47;;
23658;SDS011;12006;42.666;23.326;2022-08-14T07:11:09;5.35;;;4.85;;
23658;SDS011;12006;42.666;23.326;2022-08-14T07:13:35;7.15;;;5.38;;
23658;SDS011;12006;42.666;23.326;2022-08-14T07:16:00;5.28;;;4.78;;
23658;SDS011;12006;42.666;23.326;2022-08-14T07:18:27;5.53;;;5.03;;
23658;SDS011;12006;42.666;23.326;2022-08-14T07:20:52;5.22;;;4.47;;
23658;SDS011;12006;42.666;23.326;2022-08-14T07:23:18;11.07;;;8.38;;
23658;SDS011;12006;42.666;23.326;2022-08-14T07:25:44;10.85;;;7.72;;
23658;SDS011;12006;42.666;23.326;2022-08-14T07:30:36;9.38;;;8.02;;
23658;SDS011;12006;42.666;23.326;2022-08-14T07:33:02;10.75;;;8.20;;
23658;SDS011;12006;42.666;23.326;2022-08-14T07:35:27;10.05;;;7.85;;
23658;SDS011;12006;42.666;23.326;2022-08-14T07:37:52;11.02;;;8.07;;
23658;SDS011;12006;42.666;23.326;2022-08-14T07:40:18;12.07;;;8.23;;
23658;SDS011;12006;42.666;23.326;2022-08-14T07:42:43;10.57;;;7.45;;
23658;SDS011;12006;42.666;23.326;2022-08-14T07:45:08;5.97;;;4.05;;
23658;SDS011;12006;42.666;23.326;2022-08-14T07:47:37;3.05;;;2.72;;
23658;SDS011;12006;42.666;23.326;2022-08-14T07:50:04;3.10;;;2.75;;
23658;SDS011;12006;42.666;23.326;2022-08-14T07:52:32;2.97;;;2.67;;
23658;SDS011;12006;42.666;23.326;2022-08-14T07:54:57;4.55;;;3.20;;
23658;SDS011;12006;42.666;23.326;2022-08-14T07:57:24;2.95;;;2.60;;
23658;SDS011;12006;42.666;23.326;2022-08-14T07:59:51;2.85;;;2.50;;
23658;SDS011;12006;42.666;23.326;2022-08-14T08:02:16;2.95;;;2.75;;
23658;SDS011;12006;42.666;23.326;2022-08-14T08:04:43;3.10;;;2.80;;
23658;SDS011;12006;42.666;23.326;2022-08-14T08:07:10;2.97;;;2.75;;
23658;SDS011;12006;42.666;23.326;2022-08-14T08:09:35;3.00;;;2.58;;
23658;SDS011;12006;42.666;23.326;2022-08-14T08:12:05;2.85;;;2.47;;
23658;SDS011;12006;42.666;23.326;2022-08-14T08:14:32;2.92;;;2.72;;
23658;SDS011;12006;42.666;23.326;2022-08-14T08:16:58;3.65;;;3.35;;
23658;SDS011;12006;42.666;23.326;2022-08-14T08:19:23;2.75;;;2.50;;
23658;SDS011;12006;42.666;23.326;2022-08-14T08:21:49;4.03;;;3.63;;
23658;SDS011;12006;42.666;23.326;2022-08-14T08:24:14;3.03;;;2.70;;
23658;SDS011;12006;42.666;23.326;2022-08-14T08:26:40;2.97;;;2.78;;
23658;SDS011;12006;42.666;23.326;2022-08-14T08:29:05;3.53;;;2.95;;
23658;SDS011;12006;42.666;23.326;2022-08-14T08:31:30;3.05;;;2.47;;
23658;SDS011;12006;42.666;23.326;2022-08-14T08:33:56;2.50;;;2.30;;
23658;SDS011;12006;42.666;23.326;2022-08-14T08:36:21;2.60;;;2.30;;
23658;SDS011;12006;42.666;23.326;2022-08-14T08:38:47;2.78;;;2.10;;
23658;SDS011;12006;42.666;23.326;2022-08-14T08:41:13;2.33;;;2.13;;
23658;SDS011;12006;42.666;23.326;2022-08-14T08:43:38;2.50;;;2.05;;
23658;SDS011;12006;42.666;23.326;2022-08-14T08:46:08;2.28;;;2.08;;
23658;SDS011;12006;42.666;23.326;2022-08-14T08:48:47;2.20;;;2.00;;
23658;SDS011;12006;42.666;23.326;2022-08-14T08:51:19;1.90;;;1.75;;
23658;SDS011;12006;42.666;23.326;2022-08-14T08:53:54;2.33;;;2.13;;
23658;SDS011;12006;42.666;23.326;2022-08-14T08:56:19;2.47;;;1.70;;
23658;SDS011;12006;42.666;23.326;2022-08-14T08:58:45;2.22;;;1.95;;
23658;SDS011;12006;42.666;23.326;2022-08-14T09:01:10;2.85;;;2.45;;
23658;SDS011;12006;42.666;23.326;2022-08-14T09:03:35;2.65;;;2.42;;
23658;SDS011;12006;42.666;23.326;2022-08-14T09:06:01;2.22;;;2.03;;
23658;SDS011;12006;42.666;23.326;2022-08-14T09:08:31;1.80;;;1.70;;
23658;SDS011;12006;42.666;23.326;2022-08-14T09:10:57;2.60;;;2.40;;
23658;SDS011;12006;42.666;23.326;2022-08-14T09:13:23;2.50;;;2.30;;
23658;SDS011;12006;42.666;23.326;2022-08-14T09:15:53;2.97;;;2.50;;
23658;SDS011;12006;42.666;23.326;2022-08-14T09:18:19;3.05;;;2.75;;
23658;SDS011;12006;42.666;23.326;2022-08-14T09:20:47;4.15;;;2.45;;
23658;SDS011;12006;42.666;23.326;2022-08-14T09:23:12;2.40;;;2.20;;
23658;SDS011;12006;42.666;23.326;2022-08-14T09:25:39;2.97;;;2.38;;
23658;SDS011;12006;42.666;23.326;2022-08-14T09:28:05;4.05;;;2.72;;
23658;SDS011;12006;42.666;23.326;2022-08-14T09:30:31;2.67;;;2.17;;
23658;SDS011;12006;42.666;23.326;2022-08-14T09:40:24;2.65;;;2.28;;
23658;SDS011;12006;42.666;23.326;2022-08-14T09:43:13;2.80;;;2.60;;
23658;SDS011;12006;42.666;23.326;2022-08-14T09:45:46;3.58;;;3.17;;
23658;SDS011;12006;42.666;23.326;2022-08-14T09:48:21;3.95;;;3.40;;
23658;SDS011;12006;42.666;23.326;2022-08-14T09:50:48;3.65;;;3.35;;
23658;SDS011;12006;42.666;23.326;2022-08-14T09:53:15;3.45;;;3.15;;
23658;SDS011;12006;42.666;23.326;2022-08-14T09:55:41;4.53;;;4.05;;
23658;SDS011;12006;42.666;23.326;2022-08-14T10:00:53;4.10;;;3.70;;
23658;SDS011;12006;42.666;23.326;2022-08-14T10:03:33;4.38;;;3.58;;
23658;SDS011;12006;42.666;23.326;2022-08-14T10:06:03;4.78;;;3.95;;
23658;SDS011;12006;42.666;23.326;2022-08-14T10:08:38;3.28;;;2.97;;
23658;SDS011;12006;42.666;23.326;2022-08-14T10:11:11;3.20;;;2.90;;
23658;SDS011;12006;42.666;23.326;2022-08-14T10:13:41;3.72;;;3.30;;
23658;SDS011;12006;42.666;23.326;2022-08-14T10:16:07;3.15;;;2.85;;
23658;SDS011;12006;42.666;23.326;2022-08-14T10:18:32;3.65;;;3.35;;
23658;SDS011;12006;42.666;23.326;2022-08-14T10:20:59;3.08;;;2.78;;
23658;SDS011;12006;42.666;23.326;2022-08-14T10:23:37;3.22;;;2.75;;
23658;SDS011;12006;42.666;23.326;2022-08-14T10:26:06;3.00;;;2.80;;
23658;SDS011;12006;42.666;23.326;2022-08-14T10:28:38;2.80;;;2.60;;
23658;SDS011;12006;42.666;23.326;2022-08-14T10:31:14;2.60;;;2.40;;
23658;SDS011;12006;42.666;23.326;2022-08-14T10:33:40;2.90;;;2.70;;
23658;SDS011;12006;42.666;23.326;2022-08-14T10:36:05;3.05;;;2.83;;
23658;SDS011;12006;42.666;23.326;2022-08-14T10:38:32;2.72;;;2.30;;
23658;SDS011;12006;42.666;23.326;2022-08-14T10:41:08;2.63;;;2.42;;
23658;SDS011;12006;42.666;23.326;2022-08-14T10:43:34;2.35;;;2.15;;
23658;SDS011;12006;42.666;23.326;2022-08-14T10:45:59;2.55;;;2.35;;
23658;SDS011;12006;42.666;23.326;2022-08-14T10:48:25;2.97;;;2.60;;
23658;SDS011;12006;42.666;23.326;2022-08-14T10:50:51;2.10;;;1.90;;
23658;SDS011;12006;42.666;23.326;2022-08-14T10:53:27;1.92;;;1.70;;
23658;SDS011;12006;42.666;23.326;2022-08-14T10:55:56;2.40;;;2.20;;
23658;SDS011;12006;42.666;23.326;2022-08-14T10:58:25;2.33;;;2.13;;
23658;SDS011;12006;42.666;23.326;2022-08-14T11:00:55;2.47;;;2.25;;
23658;SDS011;12006;42.666;23.326;2022-08-14T11:03:21;3.22;;;3.00;;
23658;SDS011;12006;42.666;23.326;2022-08-14T11:05:49;3.25;;;2.92;;
23658;SDS011;12006;42.666;23.326;2022-08-14T11:08:15;3.10;;;2.80;;
23658;SDS011;12006;42.666;23.326;2022-08-14T11:13:09;2.70;;;2.50;;
23658;SDS011;12006;42.666;23.326;2022-08-14T11:15:35;3.53;;;3.13;;
23658;SDS011;12006;42.666;23.326;2022-08-14T11:18:00;3.00;;;2.67;;
23658;SDS011;12006;42.666;23.326;2022-08-14T11:20:27;3.63;;;2.70;;
23658;SDS011;12006;42.666;23.326;2022-08-14T11:22:54;2.63;;;2.42;;
23658;SDS011;12006;42.666;23.326;2022-08-14T11:25:20;2.92;;;2.70;;
23658;SDS011;12006;42.666;23.326;2022-08-14T11:27:48;4.63;;;2.40;;
23658;SDS011;12006;42.666;23.326;2022-08-14T11:30:14;2.70;;;2.50;;
23658;SDS011;12006;42.666;23.326;2022-08-14T11:32:41;3.58;;;3.28;;
23658;SDS011;12006;42.666;23.326;2022-08-14T11:35:11;4.03;;;3.05;;
23658;SDS011;12006;42.666;23.326;2022-08-14T11:37:37;2.75;;;2.55;;
23658;SDS011;12006;42.666;23.326;2022-08-14T11:40:03;3.13;;;2.83;;
23658;SDS011;12006;42.666;23.326;2022-08-14T11:42:29;2.90;;;2.60;;
23658;SDS011;12006;42.666;23.326;2022-08-14T11:44:59;3.15;;;2.90;;
23658;SDS011;12006;42.666;23.326;2022-08-14T11:47:27;3.63;;;2.95;;
23658;SDS011;12006;42.666;23.326;2022-08-14T11:49:52;3.03;;;2.83;;
23658;SDS011;12006;42.666;23.326;2022-08-14T11:52:18;2.95;;;2.63;;
23658;SDS011;12006;42.666;23.326;2022-08-14T11:54:43;3.25;;;2.95;;
23658;SDS011;12006;42.666;23.326;2022-08-14T11:57:14;2.58;;;2.38;;
23658;SDS011;12006;42.666;23.326;2022-08-14T11:59:39;3.08;;;2.80;;
23658;SDS011;12006;42.666;23.326;2022-08-14T12:02:15;3.28;;;2.25;;
23658;SDS011;12006;42.666;23.326;2022-08-14T12:04:50;3.13;;;2.88;;
23658;SDS011;12006;42.666;23.326;2022-08-14T12:07:15;3.63;;;3.10;;
23658;SDS011;12006;42.666;23.326;2022-08-14T12:09:40;3.83;;;2.97;;
23658;SDS011;12006;42.666;23.326;2022-08-14T12:12:16;2.40;;;2.20;;
23658;SDS011;12006;42.666;23.326;2022-08-14T12:17:12;3.90;;;3.60;;
23658;SDS011;12006;42.666;23.326;2022-08-14T12:19:42;2.92;;;2.72;;
23658;SDS011;12006;42.666;23.326;2022-08-14T12:22:07;2.90;;;2.70;;
23658;SDS011;12006;42.666;23.326;2022-08-14T12:24:32;4.20;;;3.03;;
23658;SDS011;12006;42.666;23.326;2022-08-14T12:26:58;2.90;;;2.70;;
23658;SDS011;12006;42.666;23.326;2022-08-14T12:29:23;3.38;;;2.53;;
23658;SDS011;12006;42.666;23.326;2022-08-14T12:31:58;2.80;;;2.60;;
23658;SDS011;12006;42.666;23.326;2022-08-14T12:34:29;2.80;;;2.60;;
23658;SDS011;12006;42.666;23.326;2022-08-14T12:37:04;3.08;;;2.78;;
23658;SDS011;12006;42.666;23.326;2022-08-14T12:39:30;3.13;;;2.83;;
23658;SDS011;12006;42.666;23.326;2022-08-14T12:41:55;2.90;;;2.70;;
23658;SDS011;12006;42.666;23.326;2022-08-14T12:44:28;2.92;;;2.65;;
23658;SDS011;12006;42.666;23.326;2022-08-14T12:47:02;2.80;;;2.60;;
23658;SDS011;12006;42.666;23.326;2022-08-14T12:49:27;3.00;;;2.75;;
23658;SDS011;12006;42.666;23.326;2022-08-14T12:51:57;2.83;;;2.63;;
23658;SDS011;12006;42.666;23.326;2022-08-14T12:54:22;3.25;;;2.95;;
23658;SDS011;12006;42.666;23.326;2022-08-14T12:56:47;3.42;;;3.13;;
23658;SDS011;12006;42.666;23.326;2022-08-14T12:59:13;3.22;;;2.92;;
23658;SDS011;12006;42.666;23.326;2022-08-14T13:01:41;3.22;;;2.92;;
23658;SDS011;12006;42.666;23.326;2022-08-14T13:04:16;3.33;;;2.90;;
23658;SDS011;12006;42.666;23.326;2022-08-14T13:06:45;3.20;;;2.90;;
23658;SDS011;12006;42.666;23.326;2022-08-14T13:09:12;3.10;;;2.78;;
23658;SDS011;12006;42.666;23.326;2022-08-14T13:11:41;3.35;;;3.05;;
23658;SDS011;12006;42.666;23.326;2022-08-14T13:14:13;5.47;;;2.92;;
23658;SDS011;12006;42.666;23.326;2022-08-14T13:16:40;3.53;;;3.22;;
23658;SDS011;12006;42.666;23.326;2022-08-14T13:19:07;3.05;;;2.85;;
23658;SDS011;12006;42.666;23.326;2022-08-14T13:21:35;3.42;;;3.13;;
23658;SDS011;12006;42.666;23.326;2022-08-14T13:24:01;3.00;;;2.80;;
23658;SDS011;12006;42.666;23.326;2022-08-14T13:26:27;2.72;;;2.53;;
23658;SDS011;12006;42.666;23.326;2022-08-14T13:28:52;2.85;;;2.65;;
23658;SDS011;12006;42.666;23.326;2022-08-14T13:31:21;2.95;;;2.75;;
23658;SDS011;12006;42.666;23.326;2022-08-14T13:33:47;2.67;;;2.47;;
23658;SDS011;12006;42.666;23.326;2022-08-14T13:36:13;3.40;;;3.10;;
23658;SDS011;12006;42.666;23.326;2022-08-14T13:38:38;3.05;;;2.83;;
23658;SDS011;12006;42.666;23.326;2022-08-14T13:41:07;2.60;;;2.40;;
23658;SDS011;12006;42.666;23.326;2022-08-14T13:43:33;3.33;;;3.03;;
23658;SDS011;12006;42.666;23.326;2022-08-14T13:46:00;2.97;;;2.47;;
23658;SDS011;12006;42.666;23.326;2022-08-14T13:48:25;3.25;;;2.95;;
23658;SDS011;12006;42.666;23.326;2022-08-14T13:50:52;2.97;;;2.67;;
23658;SDS011;12006;42.666;23.326;2022-08-14T13:53:17;2.78;;;2.55;;
23658;SDS011;12006;42.666;23.326;2022-08-14T13:55:44;3.47;;;3.05;;
23658;SDS011;12006;42.666;23.326;2022-08-14T13:58:11;4.97;;;2.90;;
23658;SDS011;12006;42.666;23.326;2022-08-14T14:00:38;3.25;;;2.95;;
23658;SDS011;12006;42.666;23.326;2022-08-14T14:03:04;3.90;;;3.00;;
23658;SDS011;12006;42.666;23.326;2022-08-14T14:05:30;4.38;;;2.90;;
23658;SDS011;12006;42.666;23.326;2022-08-14T14:08:01;5.25;;;3.63;;
23658;SDS011;12006;42.666;23.326;2022-08-14T14:10:28;3.13;;;2.83;;
23658;SDS011;12006;42.666;23.326;2022-08-14T14:12:56;3.25;;;2.95;;
23658;SDS011;12006;42.666;23.326;2022-08-14T14:15:22;3.30;;;3.00;;
23658;SDS011;12006;42.666;23.326;2022-08-14T14:17:47;3.85;;;3.38;;
23658;SDS011;12006;42.666;23.326;2022-08-14T14:20:13;4.00;;;3.60;;
23658;SDS011;12006;42.666;23.326;2022-08-14T14:22:40;3.42;;;3.13;;
23658;SDS011;12006;42.666;23.326;2022-08-14T14:25:06;2.90;;;2.70;;
23658;SDS011;12006;42.666;23.326;2022-08-14T14:27:31;4.25;;;3.20;;
23658;SDS011;12006;42.666;23.326;2022-08-14T14:29:58;2.97;;;2.65;;
23658;SDS011;12006;42.666;23.326;2022-08-14T14:32:27;3.97;;;3.35;;
23658;SDS011;12006;42.666;23.326;2022-08-14T14:34:52;3.13;;;2.55;;
23658;SDS011;12006;42.666;23.326;2022-08-14T14:37:18;3.00;;;2.70;;
23658;SDS011;12006;42.666;23.326;2022-08-14T14:39:44;3.92;;;3.20;;
23658;SDS011;12006;42.666;23.326;2022-08-14T14:42:12;4.78;;;3.08;;
23658;SDS011;12006;42.666;23.326;2022-08-14T14:44:38;3.63;;;2.70;;
23658;SDS011;12006;42.666;23.326;2022-08-14T14:47:10;3.20;;;2.72;;
23658;SDS011;12006;42.666;23.326;2022-08-14T14:49:36;4.20;;;2.85;;